Time;durP1;ratioP1;P1;durP2;ratioP2;P2;SDS_P1;SDS_P2;PMS_P1;PMS_P2;Temp;Humidity;BMP_temperature;BMP_pressure;BME280_temperature;BME280_humidity;BME280_pressure;Samples;Min_cycle;Max_cycle;Signal;HPM_P1;HPM_P2
2021/05/01 00:02:24;;;;;;;15.70;10.07;;;6.40;99.90;;;;;;5071065;28;20027;-75
2021/05/01 00:04:51;;;;;;;14.90;9.63;;;6.40;99.90;;;;;;5071065;28;20037;-74
2021/05/01 00:07:16;;;;;;;15.48;10.23;;;6.40;99.90;;;;;;5070270;28;20044;-75
2021/05/01 00:09:42;;;;;;;15.45;10.77;;;6.30;99.90;;;;;;5072635;28;20106;-74
2021/05/01 00:12:08;;;;;;;20.40;12.13;;;6.30;99.90;;;;;;5074689;28;20526;-75
2021/05/01 00:14:36;;;;;;;16.33;12.35;;;6.20;99.90;;;;;;5073702;28;20029;-75
2021/05/01 00:17:01;;;;;;;23.30;11.93;;;6.20;99.90;;;;;;5073891;28;20031;-75
2021/05/01 00:19:27;;;;;;;15.63;11.73;;;6.10;99.90;;;;;;5074831;28;20558;-75
2021/05/01 00:21:55;;;;;;;24.55;14.25;;;6.00;99.90;;;;;;5074193;28;20036;-74
2021/05/01 00:24:21;;;;;;;20.42;13.00;;;5.90;99.90;;;;;;5074576;28;20028;-75
2021/05/01 00:26:58;;;;;;;25.65;14.23;;;5.90;99.90;;;;;;5075303;28;20020;-75
2021/05/01 00:29:24;;;;;;;23.25;14.35;;;5.80;99.90;;;;;;5074932;28;20303;-74
2021/05/01 00:31:50;;;;;;;23.73;15.85;;;5.80;99.90;;;;;;5074789;28;20525;-74
2021/05/01 00:34:15;;;;;;;20.95;15.85;;;5.70;99.90;;;;;;5074104;28;20603;-74
2021/05/01 00:36:41;;;;;;;29.25;16.58;;;5.60;99.90;;;;;;5074142;28;20024;-75
2021/05/01 00:39:07;;;;;;;21.83;16.30;;;5.60;99.90;;;;;;5074497;28;20052;-74
2021/05/01 00:41:33;;;;;;;24.95;16.23;;;5.60;99.90;;;;;;5074369;28;20052;-75
2021/05/01 00:44:02;;;;;;;22.77;16.90;;;5.50;99.90;;;;;;5073849;28;20048;-74
2021/05/01 00:46:27;;;;;;;30.20;19.02;;;5.50;99.90;;;;;;5073992;28;20472;-74
2021/05/01 00:48:53;;;;;;;28.23;18.60;;;5.50;99.90;;;;;;5073861;28;20036;-74
2021/05/01 00:51:19;;;;;;;25.92;17.42;;;5.50;99.90;;;;;;5073165;28;20035;-74
2021/05/01 00:53:45;;;;;;;25.42;16.52;;;5.40;99.90;;;;;;5074372;28;20021;-74
2021/05/01 00:56:10;;;;;;;26.25;16.58;;;5.40;99.90;;;;;;5074004;28;20040;-74
2021/05/01 00:58:36;;;;;;;25.15;17.48;;;5.30;99.90;;;;;;5072957;28;20116;-73
2021/05/01 01:03:38;;;;;;;31.63;18.52;;;5.30;99.90;;;;;;5072835;28;20048;-74
2021/05/01 01:06:06;;;;;;;30.67;17.73;;;5.20;99.90;;;;;;5073771;28;20028;-76
2021/05/01 01:08:32;;;;;;;33.15;17.27;;;5.20;99.90;;;;;;5073492;28;20055;-75
2021/05/01 01:10:58;;;;;;;24.20;16.17;;;5.20;99.90;;;;;;5073030;28;20020;-74
2021/05/01 01:13:24;;;;;;;28.60;17.00;;;5.20;99.90;;;;;;5073511;28;20502;-75
2021/05/01 01:15:50;;;;;;;28.50;16.30;;;5.20;99.90;;;;;;5073600;28;20543;-75
2021/05/01 01:18:16;;;;;;;27.50;16.48;;;5.10;99.90;;;;;;5072558;28;20495;-75
2021/05/01 01:20:42;;;;;;;24.77;16.13;;;5.10;99.90;;;;;;5072771;28;20029;-74
2021/05/01 01:23:08;;;;;;;25.35;16.77;;;5.10;99.90;;;;;;5073521;28;20131;-74
2021/05/01 01:25:39;;;;;;;24.90;15.43;;;5.10;99.90;;;;;;5072411;28;20516;-74
2021/05/01 01:28:06;;;;;;;27.73;16.08;;;5.10;99.90;;;;;;5073102;28;20047;-74
2021/05/01 01:30:34;;;;;;;22.25;15.27;;;5.00;99.90;;;;;;5073210;28;20078;-74
2021/05/01 01:33:02;;;;;;;31.23;17.70;;;5.00;99.90;;;;;;5072828;28;20028;-74
2021/05/01 01:35:28;;;;;;;29.17;15.77;;;5.00;99.90;;;;;;5073013;28;20128;-74
2021/05/01 01:37:54;;;;;;;28.48;16.13;;;5.00;99.90;;;;;;5073007;28;20031;-74
2021/05/01 01:40:21;;;;;;;24.58;15.43;;;5.00;99.90;;;;;;5072217;28;20077;-74
2021/05/01 01:42:47;;;;;;;28.45;15.85;;;4.90;99.90;;;;;;5073198;28;20082;-74
2021/05/01 01:45:16;;;;;;;33.30;17.00;;;4.90;99.90;;;;;;5072630;28;20036;-74
2021/05/01 01:47:42;;;;;;;25.50;15.95;;;4.90;99.90;;;;;;5072150;28;20021;-74
2021/05/01 01:50:11;;;;;;;29.27;15.48;;;4.90;99.90;;;;;;5072973;28;20533;-74
2021/05/01 01:52:37;;;;;;;24.88;14.48;;;4.80;99.90;;;;;;5071967;28;20017;-74
2021/05/01 01:55:07;;;;;;;26.10;14.93;;;4.80;99.90;;;;;;5073000;28;20033;-74
2021/05/01 01:57:33;;;;;;;28.70;15.40;;;4.80;99.90;;;;;;5072232;28;20108;-74
2021/05/01 01:59:59;;;;;;;27.52;15.45;;;4.80;99.90;;;;;;5072234;28;20127;-74
2021/05/01 02:02:25;;;;;;;25.23;14.70;;;4.80;99.90;;;;;;5072503;28;20040;-75
2021/05/01 02:04:51;;;;;;;17.88;13.57;;;4.80;99.90;;;;;;5072648;28;20103;-74
2021/05/01 02:07:16;;;;;;;25.08;15.68;;;4.70;99.90;;;;;;5071468;28;20120;-75
2021/05/01 02:09:42;;;;;;;26.05;15.10;;;4.70;99.90;;;;;;5072693;28;20016;-74
2021/05/01 02:12:08;;;;;;;19.90;13.95;;;4.70;99.90;;;;;;5072516;28;20021;-74
2021/05/01 02:14:34;;;;;;;23.90;15.15;;;4.70;99.90;;;;;;5071634;28;20034;-74
2021/05/01 02:16:59;;;;;;;26.60;15.48;;;4.70;99.90;;;;;;5072385;28;20021;-74
2021/05/01 02:19:25;;;;;;;28.35;15.25;;;4.70;99.90;;;;;;5072222;28;20040;-74
2021/05/01 02:21:51;;;;;;;19.15;14.80;;;4.70;99.90;;;;;;5071736;28;20016;-74
2021/05/01 02:24:16;;;;;;;27.58;14.77;;;4.60;99.90;;;;;;5072009;28;20032;-74
2021/05/01 02:26:42;;;;;;;25.55;14.90;;;4.60;99.90;;;;;;5072404;28;20021;-74
2021/05/01 02:29:07;;;;;;;23.58;14.88;;;4.60;99.90;;;;;;5073020;28;20465;-75
2021/05/01 02:31:33;;;;;;;23.50;15.05;;;4.60;99.90;;;;;;5072388;28;20142;-74
2021/05/01 02:33:58;;;;;;;23.95;15.80;;;4.60;99.90;;;;;;5072484;28;20092;-74
2021/05/01 02:36:24;;;;;;;21.50;14.35;;;4.50;99.90;;;;;;5072468;28;20443;-74
2021/05/01 02:38:50;;;;;;;22.40;14.93;;;4.50;99.90;;;;;;5072485;28;20044;-74
2021/05/01 02:41:17;;;;;;;30.00;14.77;;;4.60;99.90;;;;;;5071993;28;20388;-74
2021/05/01 02:43:45;;;;;;;23.38;13.95;;;4.50;99.90;;;;;;5072034;28;20119;-74
2021/05/01 02:46:10;;;;;;;22.38;14.32;;;4.50;99.90;;;;;;5072701;28;20428;-73
2021/05/01 02:48:36;;;;;;;18.58;14.25;;;4.50;99.90;;;;;;5071712;28;20028;-74
2021/05/01 02:51:01;;;;;;;26.30;13.88;;;4.50;99.90;;;;;;5071424;28;20024;-74
2021/05/01 02:53:27;;;;;;;26.45;14.40;;;4.50;99.90;;;;;;5071835;28;20028;-74
2021/05/01 02:55:53;;;;;;;17.65;14.13;;;4.40;99.90;;;;;;5071336;28;20026;-74
2021/05/01 02:58:18;;;;;;;21.00;14.23;;;4.40;99.90;;;;;;5071912;28;20035;-74
2021/05/01 03:00:44;;;;;;;18.80;13.98;;;4.50;99.90;;;;;;5072191;28;20058;-74
2021/05/01 03:03:09;;;;;;;26.30;14.00;;;4.40;99.90;;;;;;5071539;28;20024;-74
2021/05/01 03:05:35;;;;;;;22.55;15.02;;;4.40;99.90;;;;;;5071830;28;20078;-73
2021/05/01 03:08:00;;;;;;;16.77;13.45;;;4.40;99.90;;;;;;5071909;28;20515;-74
2021/05/01 03:10:27;;;;;;;24.02;14.40;;;4.40;99.90;;;;;;5070946;28;20016;-74
2021/05/01 03:12:53;;;;;;;22.95;14.60;;;4.30;99.90;;;;;;5071778;28;20025;-73
2021/05/01 03:15:20;;;;;;;23.63;14.00;;;4.30;99.90;;;;;;5071682;28;20545;-74
2021/05/01 03:17:48;;;;;;;21.77;14.15;;;4.30;99.90;;;;;;5071027;28;20024;-74
2021/05/01 03:20:15;;;;;;;28.40;14.70;;;4.30;99.90;;;;;;5071638;28;20025;-74
2021/05/01 03:22:41;;;;;;;21.70;14.00;;;4.30;99.90;;;;;;5072050;28;20479;-75
2021/05/01 03:25:08;;;;;;;18.88;14.73;;;4.30;99.90;;;;;;5071962;28;20020;-74
2021/05/01 03:27:35;;;;;;;20.92;14.48;;;4.20;99.90;;;;;;5074238;28;20048;-74
2021/05/01 03:30:01;;;;;;;23.33;14.23;;;4.30;99.90;;;;;;5071455;28;20028;-74
2021/05/01 03:32:27;;;;;;;26.70;15.35;;;4.20;99.90;;;;;;5070541;28;20534;-74
2021/05/01 03:34:53;;;;;;;22.10;15.02;;;4.30;99.90;;;;;;5071458;28;20514;-74
2021/05/01 03:37:19;;;;;;;22.90;15.13;;;4.20;99.90;;;;;;5071202;28;20361;-74
2021/05/01 03:39:44;;;;;;;23.05;15.50;;;4.20;99.90;;;;;;5070611;28;20161;-73
2021/05/01 03:42:10;;;;;;;31.00;15.30;;;4.20;99.90;;;;;;5071534;28;20381;-73
2021/05/01 03:44:36;;;;;;;28.35;15.80;;;4.20;99.90;;;;;;5072832;28;20472;-74
2021/05/01 03:47:01;;;;;;;24.45;15.98;;;4.20;99.90;;;;;;5074575;28;20318;-73
2021/05/01 03:49:30;;;;;;;26.08;16.45;;;4.20;99.90;;;;;;5075202;28;20128;-74
2021/05/01 03:51:55;;;;;;;24.02;15.98;;;4.20;99.90;;;;;;5075195;28;20037;-74
2021/05/01 03:54:21;;;;;;;26.65;17.33;;;4.20;99.90;;;;;;5074689;28;20537;-74
2021/05/01 03:56:47;;;;;;;30.23;17.52;;;4.20;99.90;;;;;;5075249;28;20047;-73
2021/05/01 03:59:12;;;;;;;33.85;16.13;;;4.20;99.90;;;;;;5073997;28;20021;-74
2021/05/01 04:01:38;;;;;;;26.15;16.42;;;4.20;99.90;;;;;;5075072;28;20472;-74
2021/05/01 04:04:04;;;;;;;31.55;17.50;;;4.20;99.90;;;;;;5074862;28;20044;-74
2021/05/01 04:06:30;;;;;;;23.95;16.52;;;4.20;99.90;;;;;;5073888;28;20052;-74
2021/05/01 04:08:56;;;;;;;35.15;17.85;;;4.20;99.90;;;;;;5074675;28;20037;-75
2021/05/01 04:11:21;;;;;;;28.90;18.25;;;4.20;99.90;;;;;;5074644;28;20044;-75
2021/05/01 04:13:47;;;;;;;33.30;18.08;;;4.20;99.90;;;;;;5074206;28;20109;-74
2021/05/01 04:16:14;;;;;;;30.08;18.05;;;4.20;99.90;;;;;;5074213;28;20078;-74
2021/05/01 04:18:40;;;;;;;34.28;19.65;;;4.20;99.90;;;;;;5074888;28;20040;-74
2021/05/01 04:21:06;;;;;;;24.52;17.17;;;4.30;99.90;;;;;;5073917;28;20464;-74
2021/05/01 04:23:32;;;;;;;30.73;19.75;;;4.20;99.90;;;;;;5074475;28;20078;-74
2021/05/01 04:25:58;;;;;;;35.90;19.58;;;4.30;99.90;;;;;;5074470;28;20020;-74
2021/05/01 04:28:23;;;;;;;28.52;18.98;;;4.30;99.90;;;;;;5073800;28;20044;-74
2021/05/01 04:30:49;;;;;;;32.58;19.70;;;4.30;99.90;;;;;;5074926;28;20032;-74
2021/05/01 04:33:14;;;;;;;42.03;20.90;;;4.30;99.90;;;;;;5074430;28;20028;-74
2021/05/01 04:35:40;;;;;;;24.95;18.92;;;4.30;99.90;;;;;;5073803;28;20013;-74
2021/05/01 04:38:05;;;;;;;31.38;19.80;;;4.30;99.90;;;;;;5074093;28;20110;-75
2021/05/01 04:40:31;;;;;;;28.27;19.40;;;4.30;99.90;;;;;;5074557;28;20368;-75
2021/05/01 04:43:01;;;;;;;30.67;19.17;;;4.20;99.90;;;;;;5073875;28;20025;-74
2021/05/01 04:45:27;;;;;;;28.17;19.98;;;4.30;99.90;;;;;;5074127;28;20073;-75
2021/05/01 04:47:53;;;;;;;27.40;19.02;;;4.30;99.90;;;;;;5074329;28;20071;-75
2021/05/01 04:50:19;;;;;;;29.13;18.80;;;4.40;99.90;;;;;;5073156;28;20430;-74
2021/05/01 04:52:45;;;;;;;26.55;18.48;;;4.40;99.90;;;;;;5074336;28;20031;-73
2021/05/01 04:55:13;;;;;;;28.70;18.58;;;4.40;99.90;;;;;;5073914;28;20017;-74
2021/05/01 04:57:41;;;;;;;28.85;17.20;;;4.40;99.90;;;;;;5072698;28;20026;-74
2021/05/01 05:00:07;;;;;;;25.83;17.40;;;4.50;99.90;;;;;;5074238;28;20028;-74
2021/05/01 05:02:33;;;;;;;25.65;16.98;;;4.50;99.90;;;;;;5072986;28;20024;-74
2021/05/01 05:04:59;;;;;;;24.38;16.95;;;4.60;99.90;;;;;;5073952;28;20484;-74
2021/05/01 05:07:24;;;;;;;25.15;16.85;;;4.60;99.90;;;;;;5073770;28;20151;-74
2021/05/01 05:09:50;;;;;;;24.15;15.68;;;4.60;99.90;;;;;;5073887;28;20476;-76
2021/05/01 05:12:15;;;;;;;25.25;15.65;;;4.70;99.90;;;;;;5073918;28;20078;-73
2021/05/01 05:14:41;;;;;;;24.13;14.75;;;4.70;99.90;;;;;;5073754;28;20024;-73
2021/05/01 05:17:06;;;;;;;25.67;15.02;;;4.80;99.90;;;;;;5073285;28;20029;-75
2021/05/01 05:19:32;;;;;;;25.70;13.93;;;4.80;99.90;;;;;;5073477;28;20067;-73
2021/05/01 05:21:57;;;;;;;22.92;14.00;;;4.90;99.90;;;;;;5074031;28;20067;-75
2021/05/01 05:24:23;;;;;;;23.80;14.98;;;4.90;99.90;;;;;;5072469;28;20448;-74
2021/05/01 05:26:48;;;;;;;23.40;15.20;;;4.90;99.90;;;;;;5073667;28;20534;-74
2021/05/01 05:29:17;;;;;;;23.60;14.27;;;5.00;99.90;;;;;;5073572;28;20384;-74
2021/05/01 05:31:44;;;;;;;23.00;12.93;;;5.10;99.90;;;;;;5073060;28;20028;-74
2021/05/01 05:34:10;;;;;;;24.02;13.45;;;5.00;99.90;;;;;;5073745;28;20028;-76
2021/05/01 05:36:35;;;;;;;18.63;12.63;;;5.20;99.90;;;;;;5073357;28;20476;-75
2021/05/01 05:39:02;;;;;;;20.73;12.55;;;5.30;99.90;;;;;;5072693;28;20040;-76
2021/05/01 05:41:29;;;;;;;16.75;11.45;;;5.30;99.90;;;;;;5073316;28;20045;-75
2021/05/01 05:43:54;;;;;;;19.35;11.10;;;5.40;99.90;;;;;;5073473;28;20162;-75
2021/05/01 05:46:20;;;;;;;14.35;10.57;;;5.50;99.90;;;;;;5072938;28;20556;-73
2021/05/01 05:48:45;;;;;;;15.00;10.25;;;5.50;99.90;;;;;;5073066;28;20047;-74
2021/05/01 05:51:11;;;;;;;16.15;10.27;;;5.60;99.90;;;;;;5073445;28;20055;-74
2021/05/01 05:53:36;;;;;;;14.35;10.52;;;5.70;99.90;;;;;;5072271;28;20384;-74
2021/05/01 05:56:02;;;;;;;13.18;9.82;;;5.80;99.90;;;;;;5073264;28;20017;-74
2021/05/01 05:58:28;;;;;;;13.95;10.13;;;5.80;99.90;;;;;;5072981;28;20478;-74
2021/05/01 06:00:54;;;;;;;18.63;9.68;;;5.90;99.90;;;;;;5072329;28;20435;-75
2021/05/01 06:03:23;;;;;;;12.63;9.38;;;6.00;99.90;;;;;;5072645;28;20039;-74
2021/05/01 06:05:50;;;;;;;10.63;9.43;;;6.10;99.90;;;;;;5072188;28;20020;-75
2021/05/01 06:08:17;;;;;;;19.90;9.80;;;6.10;99.90;;;;;;5071831;28;20480;-74
2021/05/01 06:10:44;;;;;;;16.15;9.15;;;6.20;99.90;;;;;;5072602;28;20028;-75
2021/05/01 06:13:13;;;;;;;12.55;8.98;;;6.20;99.90;;;;;;5072215;28;20047;-75
2021/05/01 06:15:39;;;;;;;15.73;9.90;;;6.30;99.90;;;;;;5072436;28;20813;-75
2021/05/01 06:18:06;;;;;;;10.20;8.48;;;6.40;99.90;;;;;;5072240;28;20455;-75
2021/05/01 06:20:32;;;;;;;13.80;8.88;;;6.40;99.90;;;;;;5071678;28;20021;-74
2021/05/01 06:23:03;;;;;;;11.88;8.15;;;6.50;99.90;;;;;;5072488;28;20099;-74
2021/05/01 06:25:29;;;;;;;13.40;8.90;;;6.60;99.90;;;;;;5072083;28;20598;-75
2021/05/01 06:27:55;;;;;;;12.05;8.63;;;6.70;99.90;;;;;;5071720;28;20139;-75
2021/05/01 06:30:22;;;;;;;15.10;8.32;;;6.70;99.90;;;;;;5072002;28;20084;-75
2021/05/01 06:32:50;;;;;;;14.95;8.25;;;6.80;99.90;;;;;;5072967;28;20029;-75
2021/05/01 06:35:16;;;;;;;12.32;7.50;;;6.90;99.90;;;;;;5071500;28;20021;-75
2021/05/01 06:37:43;;;;;;;11.95;7.35;;;7.00;99.90;;;;;;5072514;28;20069;-73
2021/05/01 06:40:13;;;;;;;9.80;7.32;;;7.00;99.90;;;;;;5071973;28;20174;-74
2021/05/01 06:42:54;;;;;;;15.53;7.43;;;7.10;99.90;;;;;;5071912;28;20064;-76
2021/05/01 06:45:21;;;;;;;11.55;7.20;;;7.20;99.90;;;;;;5071885;28;20066;-74
2021/05/01 06:48:00;;;;;;;16.90;7.25;;;7.30;99.90;;;;;;5072587;28;20040;-74
2021/05/01 06:50:27;;;;;;;16.70;6.72;;;7.30;99.90;;;;;;5071481;28;20472;-74
2021/05/01 06:52:54;;;;;;;12.38;8.20;;;7.40;99.90;;;;;;5072022;28;20475;-75
2021/05/01 06:55:24;;;;;;;10.32;7.15;;;7.50;99.90;;;;;;5070740;28;20040;-74
2021/05/01 06:57:52;;;;;;;14.02;7.38;;;7.60;99.90;;;;;;5071860;28;20020;-75
2021/05/01 07:00:23;;;;;;;24.38;7.50;;;7.60;99.90;;;;;;5071574;28;20547;-75
2021/05/01 07:03:05;;;;;;;;;;;8.30;99.90;;;;;;5072033;28;20077;-75
2021/05/01 07:05:31;;;;;;;9.32;6.55;;;7.80;99.90;;;;;;5072106;28;19912;-76
2021/05/01 07:07:57;;;;;;;8.32;6.55;;;8.00;99.90;;;;;;5072088;28;20032;-75
2021/05/01 07:10:23;;;;;;;13.02;7.32;;;8.00;99.90;;;;;;5071233;28;20021;-75
2021/05/01 07:12:49;;;;;;;10.13;5.25;;;8.20;99.90;;;;;;5071679;28;20361;-75
2021/05/01 07:15:17;;;;;;;12.13;5.70;;;8.40;99.90;;;;;;5071653;28;20036;-75
2021/05/01 07:17:44;;;;;;;11.07;5.50;;;8.50;99.90;;;;;;5071252;28;20116;-76
2021/05/01 07:20:12;;;;;;;10.40;5.22;;;8.70;99.90;;;;;;5074386;28;20028;-76
2021/05/01 07:22:37;;;;;;;12.65;4.85;;;8.90;99.90;;;;;;5075642;28;20555;-76
2021/05/01 07:25:05;;;;;;;6.80;4.85;;;9.10;99.90;;;;;;5075631;28;20047;-77
2021/05/01 07:27:36;;;;;;;12.15;3.55;;;9.20;99.90;;;;;;5075203;28;20120;-76
2021/05/01 07:30:05;;;;;;;7.35;4.05;;;9.20;99.90;;;;;;5075810;28;20047;-76
2021/05/01 07:32:34;;;;;;;10.93;4.60;;;9.20;99.90;;;;;;5075086;28;20036;-76
2021/05/01 07:35:06;;;;;;;12.02;4.75;;;9.30;99.90;;;;;;5075898;28;20031;-76
2021/05/01 07:37:34;;;;;;;9.75;4.93;;;9.40;99.90;;;;;;5075572;28;20031;-77
2021/05/01 07:40:03;;;;;;;5.40;3.80;;;9.50;99.90;;;;;;5076282;28;20113;-76
2021/05/01 07:42:30;;;;;;;8.68;4.05;;;9.60;99.90;;;;;;5075957;28;20033;-76
2021/05/01 07:45:00;;;;;;;9.05;4.50;;;9.50;99.90;;;;;;5075209;28;20035;-76
2021/05/01 07:47:29;;;;;;;6.57;4.57;;;9.40;99.90;;;;;;5075032;28;20587;-75
2021/05/01 07:49:55;;;;;;;12.63;4.82;;;9.30;99.90;;;;;;5075680;28;20024;-76
2021/05/01 07:52:22;;;;;;;6.82;4.22;;;9.30;99.90;;;;;;5074423;28;20047;-76
2021/05/01 07:54:50;;;;;;;7.97;4.57;;;9.30;99.90;;;;;;5075643;28;20020;-77
2021/05/01 07:57:15;;;;;;;11.02;4.88;;;9.40;99.90;;;;;;5074997;28;20017;-76
2021/05/01 07:59:41;;;;;;;10.10;5.40;;;9.50;99.90;;;;;;5074723;28;20047;-76
2021/05/01 08:02:06;;;;;;;7.07;4.70;;;9.60;99.90;;;;;;5075118;28;20027;-76
2021/05/01 08:04:32;;;;;;;7.32;4.90;;;9.70;99.90;;;;;;5074756;28;20329;-76
2021/05/01 08:06:58;;;;;;;7.13;4.30;;;9.90;99.90;;;;;;5074502;28;20028;-76
2021/05/01 08:09:24;;;;;;;9.20;4.45;;;10.10;99.90;;;;;;5074707;28;20021;-76
2021/05/01 08:11:49;;;;;;;6.63;4.55;;;10.20;99.90;;;;;;5075131;28;20021;-76
2021/05/01 08:14:18;;;;;;;7.68;4.18;;;10.50;99.90;;;;;;5073956;28;20426;-76
2021/05/01 08:16:43;;;;;;;9.88;5.75;;;10.60;99.90;;;;;;5074974;28;20016;-76
2021/05/01 08:19:09;;;;;;;9.38;4.07;;;10.80;99.90;;;;;;5074783;28;20048;-76
2021/05/01 08:21:35;;;;;;;7.25;5.00;;;10.80;99.90;;;;;;5074212;28;20012;-76
2021/05/01 08:24:03;;;;;;;8.77;4.10;;;10.70;99.90;;;;;;5075123;28;20024;-76
2021/05/01 08:26:28;;;;;;;6.07;4.57;;;10.70;99.90;;;;;;5075302;28;20369;-76
2021/05/01 08:28:54;;;;;;;8.52;4.65;;;10.80;99.90;;;;;;5075424;28;20086;-76
2021/05/01 08:31:20;;;;;;;5.07;3.95;;;10.80;99.90;;;;;;5074101;28;20020;-76
2021/05/01 08:33:46;;;;;;;15.35;4.43;;;10.80;99.90;;;;;;5074304;28;20029;-77
2021/05/01 08:36:11;;;;;;;4.72;3.90;;;10.60;99.90;;;;;;5074315;28;20376;-76
2021/05/01 08:38:37;;;;;;;4.50;3.90;;;11.10;99.90;;;;;;5073509;28;20048;-76
2021/05/01 08:41:04;;;;;;;8.60;3.58;;;10.30;99.90;;;;;;5073899;28;20017;-76
2021/05/01 08:43:30;;;;;;;8.57;3.80;;;10.40;99.90;;;;;;5074045;28;20025;-76
2021/05/01 08:45:58;;;;;;;4.43;3.47;;;10.50;99.90;;;;;;5074666;28;20047;-76
2021/05/01 08:48:26;;;;;;;4.55;3.58;;;10.60;99.90;;;;;;5074394;28;20092;-76
2021/05/01 08:51:01;;;;;;;9.45;3.97;;;10.90;99.90;;;;;;5073934;28;20472;-78
2021/05/01 08:53:28;;;;;;;5.07;4.05;;;11.00;99.90;;;;;;5073831;28;20118;-77
2021/05/01 08:55:55;;;;;;;6.70;3.35;;;11.10;99.90;;;;;;5073160;28;20495;-77
2021/05/01 08:58:20;;;;;;;6.43;3.72;;;11.10;99.90;;;;;;5073730;28;20025;-77
2021/05/01 09:00:48;;;;;;;6.85;3.95;;;11.00;99.90;;;;;;5073714;28;20073;-77
2021/05/01 09:03:18;;;;;;;4.20;3.40;;;10.90;99.90;;;;;;5072966;28;20069;-77
2021/05/01 09:05:44;;;;;;;6.90;3.80;;;10.80;99.90;;;;;;5073519;28;20020;-77
2021/05/01 09:08:12;;;;;;;8.50;4.22;;;10.90;99.90;;;;;;5073472;28;20044;-77
2021/05/01 09:10:38;;;;;;;5.93;4.07;;;11.80;99.90;;;;;;5072880;28;20028;-76
2021/05/01 09:13:12;;;;;;;8.77;3.75;;;11.10;99.90;;;;;;5073295;28;20029;-77
2021/05/01 09:15:37;;;;;;;6.30;4.13;;;12.20;99.90;;;;;;5072722;28;20043;-77
2021/05/01 09:18:05;;;;;;;8.40;4.57;;;11.40;99.90;;;;;;5073045;28;20099;-77
2021/05/01 09:20:33;;;;;;;9.27;3.65;;;11.50;99.90;;;;;;5072712;28;20040;-77
2021/05/01 09:23:19;;;;;;;7.65;3.92;;;11.60;99.90;;;;;;5072412;28;20422;-77
2021/05/01 09:25:59;;;;;;;5.20;3.17;;;11.40;99.90;;;;;;5072623;28;20075;-77
2021/05/01 09:28:37;;;;;;;12.25;3.78;;;11.70;99.90;;;;;;5072639;28;20112;-77
2021/05/01 09:31:08;;;;;;;7.45;3.90;;;11.50;99.90;;;;;;5072509;28;20103;-77
2021/05/01 09:33:34;;;;;;;4.88;4.00;;;11.50;99.90;;;;;;5072893;28;20071;-77
2021/05/01 09:36:00;;;;;;;8.43;4.97;;;11.20;99.90;;;;;;5072825;28;20484;-77
2021/05/01 09:38:37;;;;;;;8.13;4.22;;;11.20;99.90;;;;;;5072056;28;20056;-77
2021/05/01 09:41:10;;;;;;;9.40;3.90;;;11.40;99.90;;;;;;5073405;28;20017;-77
2021/05/01 09:43:36;;;;;;;5.70;2.92;;;11.30;99.90;;;;;;5072088;28;20028;-76
2021/05/01 09:46:13;;;;;;;4.00;3.22;;;11.30;99.90;;;;;;5072394;28;20016;-77
2021/05/01 09:48:39;;;;;;;3.35;3.05;;;11.20;99.90;;;;;;5072950;28;20135;-76
2021/05/01 09:51:05;;;;;;;6.07;3.17;;;11.20;99.90;;;;;;5072428;28;20139;-77
2021/05/01 09:53:31;;;;;;;3.55;2.70;;;11.40;99.90;;;;;;5072875;28;20025;-76
2021/05/01 09:55:58;;;;;;;7.35;3.00;;;11.70;99.90;;;;;;5072695;28;20528;-77
2021/05/01 09:58:26;;;;;;;4.43;3.05;;;11.90;99.90;;;;;;5071967;28;20126;-76
2021/05/01 10:01:13;;;;;;;4.07;3.17;;;12.00;99.90;;;;;;5071550;28;20024;-76
2021/05/01 10:03:42;;;;;;;6.07;2.92;;;12.00;99.90;;;;;;5072491;28;20040;-76
2021/05/01 10:06:11;;;;;;;1.83;1.70;;;11.90;99.90;;;;;;5071779;28;20028;-77
2021/05/01 10:08:38;;;;;;;2.90;2.40;;;12.00;97.40;;;;;;5072009;28;20048;-77
2021/05/01 10:11:14;;;;;;;3.15;2.85;;;11.90;97.20;;;;;;5072381;28;20071;-78
2021/05/01 10:13:48;;;;;;;2.80;2.58;;;11.90;97.00;;;;;;5071836;28;20025;-77
2021/05/01 10:16:14;;;;;;;4.97;3.05;;;12.00;98.20;;;;;;5072229;28;20028;-76
2021/05/01 10:19:04;;;;;;;4.90;3.17;;;12.10;98.30;;;;;;5072696;28;20028;-77
2021/05/01 10:21:29;;;;;;;6.68;3.65;;;12.40;99.90;;;;;;5072135;28;20020;-77
2021/05/01 10:23:56;;;;;;;6.30;2.45;;;12.50;99.90;;;;;;5072277;28;20028;-77
2021/05/01 10:26:23;;;;;;;2.28;2.08;;;12.50;97.40;;;;;;5069701;28;20127;-77
2021/05/01 10:28:51;;;;;;;3.60;2.83;;;12.50;93.20;;;;;;5072520;28;20115;-78
2021/05/01 10:31:22;;;;;;;5.63;2.85;;;12.60;95.40;;;;;;5072117;28;20036;-77
2021/05/01 10:33:50;;;;;;;3.28;2.97;;;12.60;94.50;;;;;;5071742;28;20112;-78
2021/05/01 10:36:31;;;;;;;6.00;3.20;;;12.80;97.40;;;;;;5073665;28;20027;-77
2021/05/01 10:39:00;;;;;;;;;;;12.90;97.90;;;;;;5072609;28;20033;-78
2021/05/01 10:41:29;;;;;;;4.28;2.60;;;12.90;94.70;;;;;;5071375;28;19911;-78
2021/05/01 10:43:56;;;;;;;4.35;3.05;;;12.80;95.00;;;;;;5072375;28;20017;-77
2021/05/01 10:46:30;;;;;;;8.98;3.67;;;12.60;93.60;;;;;;5072163;28;20091;-77
2021/05/01 10:49:04;;;;;;;3.53;3.22;;;12.50;95.50;;;;;;5071406;28;20472;-77
2021/05/01 10:51:43;;;;;;;5.60;2.83;;;12.40;97.90;;;;;;5073186;28;20455;-77
2021/05/01 10:54:08;;;;;;;3.92;2.20;;;12.30;97.60;;;;;;5071134;28;20063;-77
2021/05/01 10:56:34;;;;;;;5.78;1.95;;;12.10;94.20;;;;;;5071407;28;20020;-77
2021/05/01 10:59:08;;;;;;;6.70;2.75;;;12.20;92.70;;;;;;5071462;28;20037;-77
2021/05/01 11:01:37;;;;;;;7.30;2.80;;;12.40;94.20;;;;;;5070981;28;20024;-77
2021/05/01 11:04:07;;;;;;;3.45;3.15;;;12.70;94.30;;;;;;5071921;28;20111;-77
2021/05/01 11:06:44;;;;;;;3.20;2.90;;;12.80;95.60;;;;;;5071844;28;20865;-77
2021/05/01 11:09:12;;;;;;;4.15;3.00;;;12.90;96.50;;;;;;5071238;28;20559;-77
2021/05/01 11:11:42;;;;;;;6.40;3.72;;;13.00;94.00;;;;;;5071857;28;20492;-76
2021/05/01 11:14:36;;;;;;;7.13;3.25;;;13.00;94.80;;;;;;5071518;28;20361;-77
2021/05/01 11:17:02;;;;;;;3.83;3.53;;;12.90;95.00;;;;;;5070995;28;20063;-77
2021/05/01 11:19:29;;;;;;;4.60;3.85;;;13.00;95.90;;;;;;5071379;28;20099;-77
2021/05/01 11:21:57;;;;;;;5.00;4.38;;;13.10;96.40;;;;;;5071431;28;20028;-77
2021/05/01 11:24:23;;;;;;;8.88;4.22;;;13.20;96.20;;;;;;5070561;28;20056;-77
2021/05/01 11:26:49;;;;;;;4.30;3.90;;;13.10;95.80;;;;;;5071493;28;20036;-77
2021/05/01 11:29:16;;;;;;;6.45;3.20;;;13.00;95.60;;;;;;5070934;28;20059;-77
2021/05/01 11:31:45;;;;;;;4.32;3.47;;;12.90;94.50;;;;;;5071291;28;20024;-77
2021/05/01 11:34:13;;;;;;;4.28;3.75;;;12.80;95.20;;;;;;5071489;28;20311;-77
2021/05/01 11:36:47;;;;;;;7.22;3.35;;;12.70;95.50;;;;;;5070810;28;20028;-77
2021/05/01 11:39:15;;;;;;;6.68;3.67;;;12.60;95.30;;;;;;5071174;28;20078;-78
2021/05/01 11:41:46;;;;;;;4.28;3.92;;;12.60;96.00;;;;;;5071755;28;20078;-77
2021/05/01 11:44:13;;;;;;;5.50;4.50;;;12.60;96.80;;;;;;5071033;28;20032;-77
2021/05/01 11:46:47;;;;;;;4.35;4.03;;;12.70;96.80;;;;;;5072102;28;20051;-77
2021/05/01 11:49:16;;;;;;;4.15;3.75;;;12.70;95.80;;;;;;5072951;28;20033;-78
2021/05/01 11:52:16;;;;;;;8.38;4.43;;;12.70;96.80;;;;;;5073073;28;20112;-78
2021/05/01 11:55:09;;;;;;;6.30;3.95;;;12.70;98.10;;;;;;5061055;28;20380;-79
2021/05/01 11:57:59;;;;;;;6.22;3.53;;;12.90;98.50;;;;;;5070498;28;20377;-78
2021/05/01 12:00:34;;;;;;;3.55;2.63;;;13.10;97.60;;;;;;5071627;28;20074;-78
2021/05/01 12:03:27;;;;;;;3.83;3.53;;;13.20;94.60;;;;;;5072314;28;20013;-77
2021/05/01 12:05:58;;;;;;;5.45;3.67;;;13.40;93.40;;;;;;5072060;28;20086;-78
2021/05/01 12:08:28;;;;;;;5.93;4.05;;;13.50;91.50;;;;;;5075203;28;20120;-78
2021/05/01 12:10:57;;;;;;;3.92;3.60;;;13.60;92.50;;;;;;5075695;28;20020;-77
2021/05/01 12:13:34;;;;;;;5.60;4.13;;;13.60;92.80;;;;;;5074448;28;20032;-77
2021/05/01 12:16:01;;;;;;;6.03;3.92;;;13.70;94.40;;;;;;5075250;28;20031;-77
2021/05/01 12:18:50;;;;;;;6.70;4.03;;;13.70;92.90;;;;;;5074575;28;20073;-77
2021/05/01 12:21:17;;;;;;;4.57;4.15;;;13.70;92.50;;;;;;5075183;28;20035;-77
2021/05/01 12:23:47;;;;;;;4.90;3.83;;;13.70;93.30;;;;;;5074818;28;20024;-77
2021/05/01 12:26:35;;;;;;;4.35;3.95;;;13.50;93.10;;;;;;5073290;28;20036;-77
2021/05/01 12:29:19;;;;;;;6.47;3.80;;;13.40;93.00;;;;;;5062575;28;20044;-77
2021/05/01 12:31:56;;;;;;;7.00;4.28;;;13.30;91.90;;;;;;5074068;28;20468;-76
2021/05/01 12:34:55;;;;;;;4.80;3.40;;;13.20;92.30;;;;;;5073325;28;20099;-77
2021/05/01 12:37:22;;;;;;;3.70;3.17;;;13.10;91.80;;;;;;5074726;28;20032;-76
2021/05/01 12:39:49;;;;;;;5.00;3.28;;;12.90;92.00;;;;;;5074116;28;20504;-76
2021/05/01 12:42:21;;;;;;;3.10;2.80;;;12.90;92.80;;;;;;5073944;28;20037;-77
2021/05/01 12:44:47;;;;;;;3.30;2.97;;;12.80;93.40;;;;;;5074811;28;20086;-76
2021/05/01 12:47:38;;;;;;;3.28;2.97;;;12.90;93.80;;;;;;5073915;28;20028;-78
2021/05/01 12:50:30;;;;;;;8.77;2.85;;;13.10;91.80;;;;;;5074892;28;20457;-77
2021/05/01 12:53:27;;;;;;;3.65;3.00;;;13.20;91.00;;;;;;5072291;28;20166;-77